sensor_id;sensor_type;location;lat;lon;timestamp;pressure;altitude;pressure_sealevel;temperature;humidity
25238;BME280;13185;50.872;5.306;2023-07-20T00:01:44;101227.59;;;16.97;100.00
25238;BME280;13185;50.872;5.306;2023-07-20T00:04:11;101221.00;;;16.90;100.00
25238;BME280;13185;50.872;5.306;2023-07-20T00:06:36;101228.50;;;16.87;100.00
25238;BME280;13185;50.872;5.306;2023-07-20T00:09:08;101220.78;;;16.82;100.00
25238;BME280;13185;50.872;5.306;2023-07-20T00:11:37;101225.72;;;16.77;100.00
25238;BME280;13185;50.872;5.306;2023-07-20T00:14:07;101223.28;;;16.74;100.00
25238;BME280;13185;50.872;5.306;2023-07-20T00:16:32;101217.28;;;16.70;100.00
25238;BME280;13185;50.872;5.306;2023-07-20T00:18:58;101218.41;;;16.68;100.00
25238;BME280;13185;50.872;5.306;2023-07-20T00:21:23;101217.75;;;16.64;100.00
25238;BME280;13185;50.872;5.306;2023-07-20T00:23:49;101211.75;;;16.61;100.00
25238;BME280;13185;50.872;5.306;2023-07-20T00:26:15;101214.59;;;16.59;100.00
25238;BME280;13185;50.872;5.306;2023-07-20T00:28:40;101206.72;;;16.56;100.00
25238;BME280;13185;50.872;5.306;2023-07-20T00:31:06;101209.41;;;16.56;100.00
25238;BME280;13185;50.872;5.306;2023-07-20T00:33:32;101198.84;;;16.53;100.00
25238;BME280;13185;50.872;5.306;2023-07-20T00:35:58;101205.25;;;16.52;100.00
25238;BME280;13185;50.872;5.306;2023-07-20T00:38:23;101200.97;;;16.50;100.00
25238;BME280;13185;50.872;5.306;2023-07-20T00:40:49;101194.69;;;16.49;100.00
25238;BME280;13185;50.872;5.306;2023-07-20T00:43:16;101213.50;;;16.51;100.00
25238;BME280;13185;50.872;5.306;2023-07-20T00:45:43;101213.38;;;16.52;100.00
25238;BME280;13185;50.872;5.306;2023-07-20T00:48:09;101209.09;;;16.50;100.00
25238;BME280;13185;50.872;5.306;2023-07-20T00:50:35;101202.97;;;16.48;100.00
25238;BME280;13185;50.872;5.306;2023-07-20T00:53:02;101197.53;;;16.48;100.00
25238;BME280;13185;50.872;5.306;2023-07-20T00:55:31;101195.81;;;16.47;100.00
25238;BME280;13185;50.872;5.306;2023-07-20T00:57:58;101200.25;;;16.48;100.00
25238;BME280;13185;50.872;5.306;2023-07-20T01:00:24;101186.56;;;16.49;100.00
25238;BME280;13185;50.872;5.306;2023-07-20T01:02:51;101191.00;;;16.50;100.00
25238;BME280;13185;50.872;5.306;2023-07-20T01:05:17;101191.13;;;16.49;100.00
25238;BME280;13185;50.872;5.306;2023-07-20T01:07:59;101190.28;;;16.48;100.00
25238;BME280;13185;50.872;5.306;2023-07-20T01:10:31;101178.59;;;16.48;100.00
25238;BME280;13185;50.872;5.306;2023-07-20T01:13:00;101193.63;;;16.40;100.00
25238;BME280;13185;50.872;5.306;2023-07-20T01:15:27;101187.47;;;16.38;100.00
25238;BME280;13185;50.872;5.306;2023-07-20T01:17:52;101190.41;;;16.35;100.00
25238;BME280;13185;50.872;5.306;2023-07-20T01:20:19;101184.91;;;16.37;100.00
25238;BME280;13185;50.872;5.306;2023-07-20T01:23:00;101175.94;;;16.36;100.00
25238;BME280;13185;50.872;5.306;2023-07-20T01:31:25;101188.47;;;16.37;100.00
25238;BME280;13185;50.872;5.306;2023-07-20T01:33:57;101172.09;;;16.39;100.00
25238;BME280;13185;50.872;5.306;2023-07-20T01:36:29;101179.59;;;16.35;100.00
25238;BME280;13185;50.872;5.306;2023-07-20T01:38:56;101175.03;;;16.36;99.78
25238;BME280;13185;50.872;5.306;2023-07-20T01:41:22;101172.00;;;16.29;99.47
25238;BME280;13185;50.872;5.306;2023-07-20T01:43:48;101175.09;;;16.25;99.32
25238;BME280;13185;50.872;5.306;2023-07-20T01:46:15;101167.81;;;16.25;100.00
25238;BME280;13185;50.872;5.306;2023-07-20T01:48:40;101167.72;;;16.27;99.76
25238;BME280;13185;50.872;5.306;2023-07-20T01:51:07;101166.88;;;16.26;99.86
25238;BME280;13185;50.872;5.306;2023-07-20T01:53:33;101168.81;;;16.24;99.62
25238;BME280;13185;50.872;5.306;2023-07-20T01:55:58;101161.56;;;16.25;99.63
25238;BME280;13185;50.872;5.306;2023-07-20T01:58:24;101170.53;;;16.25;99.91
25238;BME280;13185;50.872;5.306;2023-07-20T02:00:50;101161.94;;;16.20;99.60
25238;BME280;13185;50.872;5.306;2023-07-20T02:03:15;101162.94;;;16.19;99.84
25238;BME280;13185;50.872;5.306;2023-07-20T02:05:44;101155.09;;;16.16;99.78
25238;BME280;13185;50.872;5.306;2023-07-20T02:08:10;101154.34;;;16.14;99.70
25238;BME280;13185;50.872;5.306;2023-07-20T02:10:36;101147.47;;;16.10;99.81
25238;BME280;13185;50.872;5.306;2023-07-20T02:13:01;101150.56;;;16.05;100.00
25238;BME280;13185;50.872;5.306;2023-07-20T02:15:27;101141.69;;;16.03;100.00
25238;BME280;13185;50.872;5.306;2023-07-20T02:17:54;101151.66;;;16.03;100.00
25238;BME280;13185;50.872;5.306;2023-07-20T02:20:19;101143.69;;;16.01;100.00
25238;BME280;13185;50.872;5.306;2023-07-20T02:22:46;101148.38;;;15.99;100.00
25238;BME280;13185;50.872;5.306;2023-07-20T02:25:12;101146.06;;;15.95;100.00
25238;BME280;13185;50.872;5.306;2023-07-20T02:27:38;101140.75;;;15.93;100.00
25238;BME280;13185;50.872;5.306;2023-07-20T02:30:04;101144.84;;;15.87;100.00
25238;BME280;13185;50.872;5.306;2023-07-20T02:32:30;101150.25;;;15.87;100.00
25238;BME280;13185;50.872;5.306;2023-07-20T02:34:57;101142.63;;;15.81;100.00
25238;BME280;13185;50.872;5.306;2023-07-20T02:37:23;101150.72;;;15.81;100.00
25238;BME280;13185;50.872;5.306;2023-07-20T02:39:48;101157.13;;;15.80;100.00
25238;BME280;13185;50.872;5.306;2023-07-20T02:42:14;101158.13;;;15.79;100.00
25238;BME280;13185;50.872;5.306;2023-07-20T02:44:40;101149.03;;;15.80;100.00
25238;BME280;13185;50.872;5.306;2023-07-20T02:47:06;101155.91;;;15.84;100.00
25238;BME280;13185;50.872;5.306;2023-07-20T02:49:31;101154.94;;;15.85;100.00
25238;BME280;13185;50.872;5.306;2023-07-20T02:51:57;101166.84;;;15.83;100.00
25238;BME280;13185;50.872;5.306;2023-07-20T02:54:23;101158.00;;;15.81;100.00
25238;BME280;13185;50.872;5.306;2023-07-20T02:56:48;101154.69;;;15.77;100.00
25238;BME280;13185;50.872;5.306;2023-07-20T02:59:14;101165.63;;;15.76;100.00
25238;BME280;13185;50.872;5.306;2023-07-20T03:01:40;101170.31;;;15.74;100.00
25238;BME280;13185;50.872;5.306;2023-07-20T03:04:08;101164.91;;;15.74;100.00
25238;BME280;13185;50.872;5.306;2023-07-20T03:06:36;101170.41;;;15.72;100.00
25238;BME280;13185;50.872;5.306;2023-07-20T03:09:02;101171.41;;;15.71;100.00
25238;BME280;13185;50.872;5.306;2023-07-20T03:11:28;101168.69;;;15.71;100.00
25238;BME280;13185;50.872;5.306;2023-07-20T03:13:54;101166.00;;;15.71;100.00
25238;BME280;13185;50.872;5.306;2023-07-20T03:16:21;101164.16;;;15.72;100.00
25238;BME280;13185;50.872;5.306;2023-07-20T03:18:47;101171.28;;;15.73;100.00
25238;BME280;13185;50.872;5.306;2023-07-20T03:21:13;101171.41;;;15.71;100.00
25238;BME280;13185;50.872;5.306;2023-07-20T03:23:41;101174.09;;;15.71;100.00
25238;BME280;13185;50.872;5.306;2023-07-20T03:26:09;101167.09;;;15.69;100.00
25238;BME280;13185;50.872;5.306;2023-07-20T03:28:38;101167.84;;;15.71;100.00
25238;BME280;13185;50.872;5.306;2023-07-20T03:31:04;101171.41;;;15.71;100.00
25238;BME280;13185;50.872;5.306;2023-07-20T03:33:34;101166.97;;;15.70;100.00
25238;BME280;13185;50.872;5.306;2023-07-20T03:36:00;101169.56;;;15.72;100.00
25238;BME280;13185;50.872;5.306;2023-07-20T03:38:26;101171.53;;;15.70;100.00
25238;BME280;13185;50.872;5.306;2023-07-20T03:40:59;101176.47;;;15.65;100.00
25238;BME280;13185;50.872;5.306;2023-07-20T03:43:26;101173.97;;;15.62;100.00
25238;BME280;13185;50.872;5.306;2023-07-20T03:45:52;101182.31;;;15.58;100.00
25238;BME280;13185;50.872;5.306;2023-07-20T03:48:22;101183.31;;;15.57;100.00
25238;BME280;13185;50.872;5.306;2023-07-20T03:50:50;101179.63;;;15.58;100.00
25238;BME280;13185;50.872;5.306;2023-07-20T03:53:16;101180.38;;;15.61;100.00
25238;BME280;13185;50.872;5.306;2023-07-20T03:55:46;101177.44;;;15.64;100.00
25238;BME280;13185;50.872;5.306;2023-07-20T03:58:12;101181.63;;;15.68;100.00
25238;BME280;13185;50.872;5.306;2023-07-20T04:00:38;101187.75;;;15.70;100.00
25238;BME280;13185;50.872;5.306;2023-07-20T04:03:04;101186.63;;;15.72;100.00
25238;BME280;13185;50.872;5.306;2023-07-20T04:05:30;101183.72;;;15.75;100.00
25238;BME280;13185;50.872;5.306;2023-07-20T04:07:55;101179.16;;;15.76;100.00
25238;BME280;13185;50.872;5.306;2023-07-20T04:13:05;101189.25;;;15.74;100.00
25238;BME280;13185;50.872;5.306;2023-07-20T04:15:31;101182.72;;;15.76;100.00
25238;BME280;13185;50.872;5.306;2023-07-20T04:17:57;101187.88;;;15.79;100.00
25238;BME280;13185;50.872;5.306;2023-07-20T04:20:25;101185.03;;;15.81;100.00
25238;BME280;13185;50.872;5.306;2023-07-20T04:22:51;101196.56;;;15.83;100.00
25238;BME280;13185;50.872;5.306;2023-07-20T04:25:18;101188.38;;;15.84;100.00
25238;BME280;13185;50.872;5.306;2023-07-20T04:27:43;101190.94;;;15.86;100.00
25238;BME280;13185;50.872;5.306;2023-07-20T04:30:10;101190.69;;;15.89;100.00
25238;BME280;13185;50.872;5.306;2023-07-20T04:32:37;101188.72;;;15.91;100.00
25238;BME280;13185;50.872;5.306;2023-07-20T04:35:06;101194.84;;;15.93;100.00
25238;BME280;13185;50.872;5.306;2023-07-20T04:37:38;101196.56;;;15.94;100.00
25238;BME280;13185;50.872;5.306;2023-07-20T04:40:07;101202.72;;;15.96;100.00
25238;BME280;13185;50.872;5.306;2023-07-20T04:42:33;101203.31;;;16.00;100.00
25238;BME280;13185;50.872;5.306;2023-07-20T04:44:59;101197.78;;;16.01;100.00
25238;BME280;13185;50.872;5.306;2023-07-20T04:47:24;101204.78;;;16.04;100.00
25238;BME280;13185;50.872;5.306;2023-07-20T04:49:50;101194.72;;;16.06;100.00
25238;BME280;13185;50.872;5.306;2023-07-20T04:52:16;101196.31;;;16.08;100.00
25238;BME280;13185;50.872;5.306;2023-07-20T04:54:41;101196.16;;;16.10;100.00
25238;BME280;13185;50.872;5.306;2023-07-20T04:57:11;101209.56;;;16.11;100.00
25238;BME280;13185;50.872;5.306;2023-07-20T04:59:38;101203.91;;;16.14;100.00
25238;BME280;13185;50.872;5.306;2023-07-20T05:02:04;101210.91;;;16.17;100.00
25238;BME280;13185;50.872;5.306;2023-07-20T05:04:30;101208.09;;;16.19;100.00
25238;BME280;13185;50.872;5.306;2023-07-20T05:06:55;101203.13;;;16.24;100.00
25238;BME280;13185;50.872;5.306;2023-07-20T05:09:21;101206.59;;;16.26;100.00
25238;BME280;13185;50.872;5.306;2023-07-20T05:11:48;101203.75;;;16.27;100.00
25238;BME280;13185;50.872;5.306;2023-07-20T05:14:14;101209.91;;;16.29;100.00
25238;BME280;13185;50.872;5.306;2023-07-20T05:16:40;101204.94;;;16.34;100.00
25238;BME280;13185;50.872;5.306;2023-07-20T05:19:06;101207.28;;;16.39;100.00
25238;BME280;13185;50.872;5.306;2023-07-20T05:21:32;101210.59;;;16.42;100.00
25238;BME280;13185;50.872;5.306;2023-07-20T05:23:57;101206.66;;;16.47;100.00
25238;BME280;13185;50.872;5.306;2023-07-20T05:26:23;101208.97;;;16.51;100.00
25238;BME280;13185;50.872;5.306;2023-07-20T05:28:48;101212.03;;;16.58;100.00
25238;BME280;13185;50.872;5.306;2023-07-20T05:31:14;101211.47;;;16.64;100.00
25238;BME280;13185;50.872;5.306;2023-07-20T05:33:39;101213.59;;;16.71;100.00
25238;BME280;13185;50.872;5.306;2023-07-20T05:36:05;101217.00;;;16.73;100.00
25238;BME280;13185;50.872;5.306;2023-07-20T05:38:30;101222.91;;;16.79;100.00
25238;BME280;13185;50.872;5.306;2023-07-20T05:40:59;101225.09;;;16.85;100.00
25238;BME280;13185;50.872;5.306;2023-07-20T05:43:26;101229.38;;;16.87;100.00
25238;BME280;13185;50.872;5.306;2023-07-20T05:45:51;101238.84;;;16.93;100.00
25238;BME280;13185;50.872;5.306;2023-07-20T05:48:17;101230.19;;;16.99;100.00
25238;BME280;13185;50.872;5.306;2023-07-20T05:50:42;101227.22;;;17.02;100.00
25238;BME280;13185;50.872;5.306;2023-07-20T05:53:08;101231.00;;;17.11;100.00
25238;BME280;13185;50.872;5.306;2023-07-20T05:55:34;101226.50;;;17.21;100.00
25238;BME280;13185;50.872;5.306;2023-07-20T05:57:59;101224.81;;;17.29;100.00
25238;BME280;13185;50.872;5.306;2023-07-20T06:00:25;101226.56;;;17.30;100.00
25238;BME280;13185;50.872;5.306;2023-07-20T06:02:54;101230.84;;;17.33;100.00
25238;BME280;13185;50.872;5.306;2023-07-20T06:05:21;101228.56;;;17.38;100.00
25238;BME280;13185;50.872;5.306;2023-07-20T06:07:47;101240.28;;;17.39;100.00
25238;BME280;13185;50.872;5.306;2023-07-20T06:10:12;101234.59;;;17.42;100.00
25238;BME280;13185;50.872;5.306;2023-07-20T06:12:38;101231.81;;;17.53;100.00
25238;BME280;13185;50.872;5.306;2023-07-20T06:15:05;101241.94;;;17.60;99.39
25238;BME280;13185;50.872;5.306;2023-07-20T06:17:30;101237.72;;;17.68;98.96
25238;BME280;13185;50.872;5.306;2023-07-20T06:19:56;101233.03;;;17.70;98.37
25238;BME280;13185;50.872;5.306;2023-07-20T06:22:21;101234.75;;;17.71;97.89
25238;BME280;13185;50.872;5.306;2023-07-20T06:24:47;101232.03;;;17.71;97.26
25238;BME280;13185;50.872;5.306;2023-07-20T06:27:12;101237.22;;;17.74;96.81
25238;BME280;13185;50.872;5.306;2023-07-20T06:32:04;101238.66;;;17.78;96.07
25238;BME280;13185;50.872;5.306;2023-07-20T06:34:30;101242.22;;;17.78;95.47
25238;BME280;13185;50.872;5.306;2023-07-20T06:36:55;101239.78;;;17.75;95.57
25238;BME280;13185;50.872;5.306;2023-07-20T06:39:21;101254.59;;;17.71;95.34
25238;BME280;13185;50.872;5.306;2023-07-20T06:41:47;101250.91;;;17.72;95.55
25238;BME280;13185;50.872;5.306;2023-07-20T06:44:13;101238.94;;;17.75;95.67
25238;BME280;13185;50.872;5.306;2023-07-20T06:46:38;101235.66;;;17.81;95.15
25238;BME280;13185;50.872;5.306;2023-07-20T06:49:06;101236.53;;;17.91;94.87
25238;BME280;13185;50.872;5.306;2023-07-20T06:51:32;101242.72;;;18.03;94.91
25238;BME280;13185;50.872;5.306;2023-07-20T06:53:57;101241.63;;;18.15;93.80
25238;BME280;13185;50.872;5.306;2023-07-20T06:56:23;101246.50;;;18.31;93.62
25238;BME280;13185;50.872;5.306;2023-07-20T06:58:48;101242.97;;;18.40;92.00
25238;BME280;13185;50.872;5.306;2023-07-20T07:01:14;101253.13;;;18.48;92.19
25238;BME280;13185;50.872;5.306;2023-07-20T07:03:40;101249.25;;;18.50;91.71
25238;BME280;13185;50.872;5.306;2023-07-20T07:06:05;101249.25;;;18.50;90.61
25238;BME280;13185;50.872;5.306;2023-07-20T07:08:31;101245.56;;;18.51;90.44
25238;BME280;13185;50.872;5.306;2023-07-20T07:10:57;101247.00;;;18.65;89.87
25238;BME280;13185;50.872;5.306;2023-07-20T07:13:22;101246.59;;;18.79;88.21
25238;BME280;13185;50.872;5.306;2023-07-20T07:15:48;101250.59;;;18.85;87.21
25238;BME280;13185;50.872;5.306;2023-07-20T07:18:13;101262.31;;;18.95;86.88
25238;BME280;13185;50.872;5.306;2023-07-20T07:20:39;101257.03;;;19.03;87.17
25238;BME280;13185;50.872;5.306;2023-07-20T07:23:05;101255.59;;;19.09;86.96
25238;BME280;13185;50.872;5.306;2023-07-20T07:25:30;101255.59;;;19.09;86.62
25238;BME280;13185;50.872;5.306;2023-07-20T07:27:57;101258.31;;;19.09;86.30
25238;BME280;13185;50.872;5.306;2023-07-20T07:30:23;101267.75;;;19.14;86.41
25238;BME280;13185;50.872;5.306;2023-07-20T07:32:49;101273.47;;;19.11;85.57
25238;BME280;13185;50.872;5.306;2023-07-20T07:35:14;101263.47;;;19.12;85.26
25238;BME280;13185;50.872;5.306;2023-07-20T07:37:40;101271.63;;;19.12;84.43
25238;BME280;13185;50.872;5.306;2023-07-20T07:40:06;101268.91;;;19.12;84.12
25238;BME280;13185;50.872;5.306;2023-07-20T07:42:33;101271.47;;;19.13;83.96
25238;BME280;13185;50.872;5.306;2023-07-20T07:44:58;101269.03;;;19.20;84.64
25238;BME280;13185;50.872;5.306;2023-07-20T07:47:24;101266.72;;;19.35;83.71
25238;BME280;13185;50.872;5.306;2023-07-20T07:49:49;101270.25;;;19.54;82.53
25238;BME280;13185;50.872;5.306;2023-07-20T07:52:15;101265.13;;;19.61;81.29
25238;BME280;13185;50.872;5.306;2023-07-20T07:54:40;101269.53;;;19.72;81.35
25238;BME280;13185;50.872;5.306;2023-07-20T07:57:06;101269.72;;;19.88;81.42
25238;BME280;13185;50.872;5.306;2023-07-20T07:59:31;101263.19;;;20.08;80.96
25238;BME280;13185;50.872;5.306;2023-07-20T08:02:02;101270.94;;;20.31;80.24
25238;BME280;13185;50.872;5.306;2023-07-20T08:04:27;101275.91;;;20.45;80.26
25238;BME280;13185;50.872;5.306;2023-07-20T08:06:53;101271.88;;;20.49;78.75
25238;BME280;13185;50.872;5.306;2023-07-20T08:09:18;101275.59;;;20.48;77.49
25238;BME280;13185;50.872;5.306;2023-07-20T08:11:44;101271.75;;;20.41;77.37
25238;BME280;13185;50.872;5.306;2023-07-20T08:14:09;101277.78;;;20.44;77.90
25238;BME280;13185;50.872;5.306;2023-07-20T08:16:35;101280.19;;;20.48;78.00
25238;BME280;13185;50.872;5.306;2023-07-20T08:19:00;101276.78;;;20.45;77.31
25238;BME280;13185;50.872;5.306;2023-07-20T08:21:25;101276.63;;;20.47;77.37
25238;BME280;13185;50.872;5.306;2023-07-20T08:23:51;101279.13;;;20.58;77.42
25238;BME280;13185;50.872;5.306;2023-07-20T08:26:16;101279.06;;;20.68;77.15
25238;BME280;13185;50.872;5.306;2023-07-20T08:28:44;101267.69;;;20.72;76.16
25238;BME280;13185;50.872;5.306;2023-07-20T08:31:10;101287.69;;;20.63;75.46
25238;BME280;13185;50.872;5.306;2023-07-20T08:33:35;101279.19;;;20.49;75.72
25238;BME280;13185;50.872;5.306;2023-07-20T08:36:01;101283.41;;;20.43;75.04
25238;BME280;13185;50.872;5.306;2023-07-20T08:38:27;101286.84;;;20.35;75.33
25238;BME280;13185;50.872;5.306;2023-07-20T08:40:53;101283.53;;;20.32;75.96
25238;BME280;13185;50.872;5.306;2023-07-20T08:43:23;101280.13;;;20.30;75.78
25238;BME280;13185;50.872;5.306;2023-07-20T08:45:54;101286.28;;;20.32;75.81
25238;BME280;13185;50.872;5.306;2023-07-20T08:48:20;101285.88;;;20.27;74.63
25238;BME280;13185;50.872;5.306;2023-07-20T08:50:47;101285.13;;;20.34;75.04
25238;BME280;13185;50.872;5.306;2023-07-20T08:53:14;101283.25;;;20.44;75.08
25238;BME280;13185;50.872;5.306;2023-07-20T08:55:44;101281.00;;;20.58;75.11
25238;BME280;13185;50.872;5.306;2023-07-20T08:58:12;101276.72;;;20.73;74.49
25238;BME280;13185;50.872;5.306;2023-07-20T09:00:38;101278.44;;;20.74;74.14
25238;BME280;13185;50.872;5.306;2023-07-20T09:03:03;101274.06;;;20.81;73.15
25238;BME280;13185;50.872;5.306;2023-07-20T09:05:30;101285.59;;;20.93;74.54
25238;BME280;13185;50.872;5.306;2023-07-20T09:07:55;101277.97;;;20.96;72.29
25238;BME280;13185;50.872;5.306;2023-07-20T09:10:21;101276.41;;;20.94;71.63
25238;BME280;13185;50.872;5.306;2023-07-20T09:12:47;101273.84;;;20.92;70.32
25238;BME280;13185;50.872;5.306;2023-07-20T09:15:12;101279.75;;;21.06;71.50
25238;BME280;13185;50.872;5.306;2023-07-20T09:17:38;101267.75;;;21.16;70.84
25238;BME280;13185;50.872;5.306;2023-07-20T09:20:06;101277.94;;;21.14;69.02
25238;BME280;13185;50.872;5.306;2023-07-20T09:22:37;101276.22;;;21.13;68.34
25238;BME280;13185;50.872;5.306;2023-07-20T09:25:15;101271.59;;;21.06;68.56
25238;BME280;13185;50.872;5.306;2023-07-20T09:27:45;101275.16;;;21.06;69.09
25238;BME280;13185;50.872;5.306;2023-07-20T09:30:12;101270.41;;;21.08;67.80
25238;BME280;13185;50.872;5.306;2023-07-20T09:32:46;101269.16;;;21.02;68.16
25238;BME280;13185;50.872;5.306;2023-07-20T09:35:16;101270.81;;;20.95;66.74
25238;BME280;13185;50.872;5.306;2023-07-20T09:37:55;101266.91;;;20.80;65.90
25238;BME280;13185;50.872;5.306;2023-07-20T09:40:23;101276.78;;;20.81;66.31
25238;BME280;13185;50.872;5.306;2023-07-20T09:42:52;101271.59;;;20.88;67.03
25238;BME280;13185;50.872;5.306;2023-07-20T09:45:19;101272.97;;;20.92;66.76
25238;BME280;13185;50.872;5.306;2023-07-20T09:47:45;101267.53;;;20.92;65.90
25238;BME280;13185;50.872;5.306;2023-07-20T09:50:10;101253.13;;;20.99;67.97
25238;BME280;13185;50.872;5.306;2023-07-20T09:52:39;101259.78;;;21.23;67.64
25238;BME280;13185;50.872;5.306;2023-07-20T09:55:14;101248.63;;;21.34;66.53
25238;BME280;13185;50.872;5.306;2023-07-20T09:57:40;101259.44;;;21.44;66.21
25238;BME280;13185;50.872;5.306;2023-07-20T10:00:07;101255.41;;;21.48;64.91
25238;BME280;13185;50.872;5.306;2023-07-20T10:02:42;101258.81;;;21.50;64.53
25238;BME280;13185;50.872;5.306;2023-07-20T10:05:09;101254.72;;;21.54;64.25
25238;BME280;13185;50.872;5.306;2023-07-20T10:07:36;101254.53;;;21.47;63.55
25238;BME280;13185;50.872;5.306;2023-07-20T10:10:06;101251.41;;;21.42;62.83
25238;BME280;13185;50.872;5.306;2023-07-20T10:12:33;101256.81;;;21.34;62.37
25238;BME280;13185;50.872;5.306;2023-07-20T10:15:12;101246.59;;;21.36;62.20
25238;BME280;13185;50.872;5.306;2023-07-20T10:17:47;101248.47;;;21.36;62.24
25238;BME280;13185;50.872;5.306;2023-07-20T10:20:16;101249.22;;;21.46;62.93
25238;BME280;13185;50.872;5.306;2023-07-20T10:22:45;101250.81;;;21.56;62.75
25238;BME280;13185;50.872;5.306;2023-07-20T10:25:13;101240.13;;;21.63;62.51
25238;BME280;13185;50.872;5.306;2023-07-20T10:27:39;101235.41;;;21.73;62.58
25238;BME280;13185;50.872;5.306;2023-07-20T10:32:31;101228.31;;;21.88;60.39
25238;BME280;13185;50.872;5.306;2023-07-20T10:34:57;101232.75;;;21.89;59.02
25238;BME280;13185;50.872;5.306;2023-07-20T10:37:51;101232.75;;;21.89;58.73
25238;BME280;13185;50.872;5.306;2023-07-20T10:40:34;101228.50;;;21.95;57.72
25238;BME280;13185;50.872;5.306;2023-07-20T10:43:04;101216.56;;;21.96;57.06
25238;BME280;13185;50.872;5.306;2023-07-20T10:45:53;101222.56;;;22.00;56.44
25238;BME280;13185;50.872;5.306;2023-07-20T10:48:25;101210.06;;;21.97;54.72
25238;BME280;13185;50.872;5.306;2023-07-20T10:51:13;101210.06;;;21.97;54.30
25238;BME280;13185;50.872;5.306;2023-07-20T10:53:39;101214.69;;;21.97;53.98
25238;BME280;13185;50.872;5.306;2023-07-20T10:56:12;101205.50;;;22.06;55.24
25238;BME280;13185;50.872;5.306;2023-07-20T10:58:40;101205.06;;;22.10;53.93
25238;BME280;13185;50.872;5.306;2023-07-20T11:01:07;101202.94;;;22.04;54.17
25238;BME280;13185;50.872;5.306;2023-07-20T11:03:37;101205.91;;;22.11;54.36
25238;BME280;13185;50.872;5.306;2023-07-20T11:09:02;101208.97;;;22.16;51.71
25238;BME280;13185;50.872;5.306;2023-07-20T11:11:34;101210.53;;;22.18;52.31
25238;BME280;13185;50.872;5.306;2023-07-20T11:14:01;101209.53;;;22.28;53.20
25238;BME280;13185;50.872;5.306;2023-07-20T11:16:41;101200.31;;;22.37;53.58
25238;BME280;13185;50.872;5.306;2023-07-20T11:19:14;101197.44;;;22.46;53.43
25238;BME280;13185;50.872;5.306;2023-07-20T11:21:45;101202.22;;;22.44;53.16
25238;BME280;13185;50.872;5.306;2023-07-20T11:24:10;101197.09;;;22.41;52.45
25238;BME280;13185;50.872;5.306;2023-07-20T11:26:46;101197.41;;;22.38;52.12
25238;BME280;13185;50.872;5.306;2023-07-20T11:29:12;101194.38;;;22.41;52.71
25238;BME280;13185;50.872;5.306;2023-07-20T11:31:40;101188.56;;;22.44;52.69
25238;BME280;13185;50.872;5.306;2023-07-20T11:34:07;101183.09;;;22.44;52.64
25238;BME280;13185;50.872;5.306;2023-07-20T11:36:33;101189.75;;;22.58;52.82
25238;BME280;13185;50.872;5.306;2023-07-20T11:38:59;101186.53;;;22.71;51.49
25238;BME280;13185;50.872;5.306;2023-07-20T11:41:25;101191.84;;;22.64;50.87
25238;BME280;13185;50.872;5.306;2023-07-20T11:43:52;101189.78;;;22.74;50.71
25238;BME280;13185;50.872;5.306;2023-07-20T11:46:17;101189.97;;;22.89;51.00
25238;BME280;13185;50.872;5.306;2023-07-20T11:48:43;101184.69;;;23.04;51.77
25238;BME280;13185;50.872;5.306;2023-07-20T11:51:16;101183.97;;;23.10;50.48
25238;BME280;13185;50.872;5.306;2023-07-20T11:53:44;101181.25;;;23.18;50.12
25238;BME280;13185;50.872;5.306;2023-07-20T11:56:11;101187.38;;;23.28;48.19
25238;BME280;13185;50.872;5.306;2023-07-20T11:58:41;101189.09;;;23.29;48.59
25238;BME280;13185;50.872;5.306;2023-07-20T12:01:07;101188.22;;;23.37;49.55
25238;BME280;13185;50.872;5.306;2023-07-20T12:03:32;101177.22;;;23.61;48.54
25238;BME280;13185;50.872;5.306;2023-07-20T12:06:06;101179.94;;;23.70;47.87
25238;BME280;13185;50.872;5.306;2023-07-20T12:08:32;101181.22;;;23.90;48.62
25238;BME280;13185;50.872;5.306;2023-07-20T12:10:58;101178.25;;;24.00;47.10
25238;BME280;13185;50.872;5.306;2023-07-20T12:13:23;101168.75;;;23.87;46.31
25238;BME280;13185;50.872;5.306;2023-07-20T12:15:53;101167.25;;;24.08;47.82
25238;BME280;13185;50.872;5.306;2023-07-20T12:18:22;101161.66;;;24.32;46.62
25238;BME280;13185;50.872;5.306;2023-07-20T12:20:48;101166.00;;;24.50;46.58
25238;BME280;13185;50.872;5.306;2023-07-20T12:23:14;101161.84;;;24.54;47.36
25238;BME280;13185;50.872;5.306;2023-07-20T12:25:42;101158.84;;;24.40;46.97
25238;BME280;13185;50.872;5.306;2023-07-20T12:28:15;101152.88;;;24.37;47.31
25238;BME280;13185;50.872;5.306;2023-07-20T12:30:41;101155.97;;;24.34;46.85
25238;BME280;13185;50.872;5.306;2023-07-20T12:33:07;101165.59;;;24.30;45.01
25238;BME280;13185;50.872;5.306;2023-07-20T12:35:33;101157.69;;;24.27;45.09
25238;BME280;13185;50.872;5.306;2023-07-20T12:37:59;101157.34;;;24.30;45.57
25238;BME280;13185;50.872;5.306;2023-07-20T12:40:25;101156.34;;;24.31;45.26
25238;BME280;13185;50.872;5.306;2023-07-20T12:42:51;101157.09;;;24.16;44.90
25238;BME280;13185;50.872;5.306;2023-07-20T12:45:16;101160.41;;;24.04;44.70
25238;BME280;13185;50.872;5.306;2023-07-20T12:47:42;101158.84;;;24.09;44.78
25238;BME280;13185;50.872;5.306;2023-07-20T12:50:11;101158.75;;;24.26;46.16
25238;BME280;13185;50.872;5.306;2023-07-20T12:52:39;101152.44;;;24.48;46.26
25238;BME280;13185;50.872;5.306;2023-07-20T12:55:05;101149.88;;;24.69;45.23
25238;BME280;13185;50.872;5.306;2023-07-20T12:57:31;101164.91;;;24.96;44.99
25238;BME280;13185;50.872;5.306;2023-07-20T12:59:57;101152.25;;;25.10;44.94
25238;BME280;13185;50.872;5.306;2023-07-20T13:02:22;101150.41;;;25.25;45.20